Flight Track Log - Related Links

Times and Time Zones

All times are in EDT time to prevent confusion due to time zone crossing. See the SKW5550 flight status page for this flight to view local times or setup timezone preferences in your user account.

Time Position Orientation Groundspeed Altitude Reporting Facility
EDT Latitude Longitude Course Direction KTS MPH feet Rate Location/Type
Sat 05:17:07 PM 39.8000 -104.6667 270° West 187 215 7,400  Level Denver TRACON
Sat 05:18:01 PM 39.7500 -104.7000 207° Southwest 223 257 9,100 1,950 Climbing Denver TRACON
Sat 05:19:07 PM 39.6833 -104.7500 210° Southwest 275 316 11,300 2,265 Climbing Denver TRACON
Sat 05:20:32 PM 39.7000 -104.8794 280° West 282 325 14,800 2,408 Climbing Denver Center
Sat 05:21:34 PM 39.7319 -104.9739 294° West 283 326 17,200 1,902 Climbing Denver Center
Sat 05:22:00 PM 39.8627 -105.3505 270° West  Level Estimated
Sat 05:22:35 PM 39.7661 -105.0722 294° West 299 344 18,700  Level Denver Center
Sat 05:23:37 PM 39.8050 -105.1836 294° West 314 361 20,800 1,935 Climbing Denver Center
Sat 05:24:39 PM 39.8397 -105.2881 293° West 314 361 22,700 1,854 Climbing Denver Center
Sat 05:25:40 PM 39.8789 -105.4025 294° West 321 369 24,600 1,707 Climbing Denver Center
Sat 05:26:42 PM 39.9131 -105.5125 292° West 331 381 26,200 1,355 Climbing Denver Center
Sat 05:27:44 PM 39.9281 -105.6278 280° West 325 374 27,400 1,220 Climbing Denver Center
Sat 05:28:45 PM 39.9453 -105.7453 281° West 333 383 28,700 1,220 Climbing Denver Center
Sat 05:29:47 PM 39.9625 -105.8628 281° West 328 377 29,900 1,113 Climbing Denver Center
Sat 05:30:49 PM 39.9797 -105.9822 281° West 335 386 31,000 976 Climbing Denver Center
Sat 05:31:50 PM 39.9975 -106.1036 281° West 341 392 31,900 976 Climbing Denver Center
Sat 05:32:52 PM 40.0183 -106.2528 280° West 349 402 33,000 774 Climbing Denver Center
Sat 05:33:54 PM 40.0353 -106.3792 280° West 355 409 33,500 439 Climbing Denver Center
Sat 05:34:55 PM 40.0544 -106.5175 280° West 367 422 33,900 244 Climbing Denver Center
Sat 05:35:57 PM 40.0736 -106.6547 280° West 379 436 34,000 48 Climbing Denver Center
Sat 05:36:59 PM 40.0919 -106.7803 281° West 372 428 34,000  Level Denver Center
Sat 05:38:00 PM 40.1103 -106.9256 279° West 365 420 34,000  Level Denver Center
Sat 05:39:02 PM 40.1269 -107.0506 280° West 365 420 34,000  Level Denver Center
Sat 05:40:04 PM 40.1447 -107.1783 280° West 371 427 34,000  Level Denver Center
Sat 05:41:06 PM 40.1636 -107.3283 279° West 375 432 34,000  Level Denver Center
Sat 05:42:08 PM 40.1800 -107.4569 280° West 376 433 34,000  Level Denver Center
Sat 05:43:09 PM 40.2000 -107.6081 280° West 377 434 34,000  Level Denver Center
Sat 05:44:11 PM 40.2158 -107.7389 279° West 380 437 34,000  Level Denver Center
Sat 05:45:13 PM 40.2353 -107.8922 279° West 384 442 34,000  Level Denver Center
Sat 05:46:15 PM 40.2517 -108.0244 279° West 385 443 34,000 290 Level Denver Center
Sat 05:47:17 PM 40.2706 -108.1828 279° West 394 453 34,600 537 Climbing Denver Center
Sat 05:48:18 PM 40.2878 -108.3178 280° West 394 453 35,100 641 Climbing Denver Center
Sat 05:49:00 PM 40.3011 -108.4297 279° West 398 458 35,700 865 Climbing Salt Lake Center
Sat 05:50:02 PM 40.3172 -108.5642 279° West 393 452 36,600 829 Climbing Salt Lake Center
Sat 05:51:03 PM 40.3361 -108.6967 281° West 387 445 37,400 689 Climbing Salt Lake Center
Sat 05:52:04 PM 40.3803 -108.8417 292° West 383 441 38,000 293 Climbing Salt Lake Center
Sat 05:53:06 PM 40.3978 -108.9714 280° West 376 433 38,000  Level Salt Lake Center
Sat 05:54:07 PM 40.4122 -109.1211 277° West 372 428 38,000  Level Salt Lake Center
Sat 05:55:09 PM 40.4258 -109.2500 278° West 373 429 38,000  Level Salt Lake Center
Sat 05:56:10 PM 40.4386 -109.3814 277° West 378 435 38,000  Level Salt Lake Center
Sat 05:57:11 PM 40.4544 -109.5339 278° West 379 436 38,000  Level Salt Lake Center
Sat 05:58:13 PM 40.4683 -109.6661 278° West 383 441 38,000  Level Salt Lake Center
Sat 05:59:14 PM 40.4836 -109.8236 277° West 386 444 38,000  Level Salt Lake Center
Sat 06:00:15 PM 40.4961 -109.9575 277° West 387 445 38,000  Level Salt Lake Center
Sat 06:01:17 PM 40.5108 -110.0928 278° West 391 450 38,000  Level Salt Lake Center
Sat 06:02:18 PM 40.5250 -110.2497 277° West 388 447 38,000  Level Salt Lake Center
Sat 06:03:19 PM 40.5367 -110.3842 277° West 387 445 38,000  Level Salt Lake Center
Sat 06:04:20 PM 40.5522 -110.5422 277° West 391 450 38,000  Level Salt Lake Center
Sat 06:05:21 PM 40.5636 -110.6603 277° West 389 448 38,000  Level Salt Lake Center
Sat 06:06:23 PM 40.5792 -110.8275 277° West 385 443 38,000  Level Salt Lake Center
Sat 06:07:24 PM 40.5911 -110.9669 276° West 384 442 38,000  Level Salt Lake Center
Sat 06:08:25 PM 40.6044 -111.1064 277° West 384 442 38,000  Level Salt Lake Center
Sat 06:09:26 PM 40.6164 -111.2453 277° West 383 441 38,000  Level Salt Lake Center
Sat 06:10:27 PM 40.6283 -111.3831 277° West 380 437 38,000  Level Salt Lake Center
Sat 06:11:28 PM 40.6406 -111.5217 277° West 380 437 38,000  Level Salt Lake Center
Sat 06:12:30 PM 40.6514 -111.6592 276° West 377 434 38,000  Level Salt Lake Center
Sat 06:13:31 PM 40.6631 -111.7967 276° West 376 433 38,000  Level Salt Lake Center
Sat 06:14:32 PM 40.6747 -111.9356 276° West 378 435 38,000  Level Salt Lake Center
Sat 06:15:33 PM 40.6850 -112.0736 276° West 377 434 38,000  Level Salt Lake Center
Sat 06:16:34 PM 40.6958 -112.2119 276° West 378 435 38,000  Level Salt Lake Center
Sat 06:17:35 PM 40.7067 -112.3494 276° West 376 433 38,000  Level Salt Lake Center
Sat 06:18:36 PM 40.7172 -112.4881 276° West 380 437 38,000  Level Salt Lake Center
Sat 06:19:37 PM 40.7214 -112.6261 272° West 377 434 38,000  Level Salt Lake Center
Sat 06:20:38 PM 40.7244 -112.7925 271° West 379 436 38,000  Level Salt Lake Center
Sat 06:21:39 PM 40.7242 -112.9314 270° West 379 436 38,000  Level Salt Lake Center
Sat 06:22:40 PM 40.7244 -113.0711 270° West 381 438 38,000  Level Salt Lake Center
Sat 06:23:42 PM 40.7264 -113.2103 271° West 381 438 38,000  Level Salt Lake Center
Sat 06:24:43 PM 40.7258 -113.3478 270° West 376 433 38,000  Level Salt Lake Center
Sat 06:25:44 PM 40.7261 -113.4861 270° West 378 435 38,000  Level Salt Lake Center
Sat 06:26:45 PM 40.7256 -113.6244 270° West 378 435 38,000  Level Salt Lake Center
Sat 06:27:46 PM 40.7258 -113.7619 270° West 377 434 38,000  Level Salt Lake Center
Sat 06:28:47 PM 40.7231 -113.9006 269° West 378 435 38,000  Level Salt Lake Center
Sat 06:29:48 PM 40.7169 -114.0386 267° West 378 435 38,000  Level Salt Lake Center
Sat 06:30:49 PM 40.7119 -114.1753 267° West 376 433 38,000  Level Salt Lake Center
Sat 06:31:50 PM 40.7083 -114.3142 268° West 379 436 38,000  Level Salt Lake Center
Sat 06:32:51 PM 40.7033 -114.4794 268° West 378 435 38,000  Level Salt Lake Center
Sat 06:33:52 PM 40.6972 -114.6197 267° West 382 440 38,000  Level Salt Lake Center
Sat 06:34:54 PM 40.6694 -114.7514 254° West 375 432 38,000  Level Salt Lake Center
Sat 06:35:55 PM 40.6333 -114.8861 251° West 374 430 38,000  Level Salt Lake Center
Sat 06:36:56 PM 40.6014 -115.0108 251° West 376 433 38,000  Level Salt Lake Center
Sat 06:37:57 PM 40.5706 -115.1375 252° West 378 435 38,000  Level Salt Lake Center
Sat 06:38:58 PM 40.5308 -115.2842 250° West 381 438 38,000  Level Salt Lake Center
Sat 06:39:59 PM 40.5006 -115.4097 252° West 378 435 38,000  Level Salt Lake Center
Sat 06:41:00 PM 40.4697 -115.5364 252° West 380 437 38,000  Level Salt Lake Center
Sat 06:42:01 PM 40.4364 -115.6844 254° West 378 435 38,000  Level Salt Lake Center
Sat 06:43:02 PM 40.4033 -115.8114 251° West 382 440 38,000  Level Salt Lake Center
Sat 06:44:03 PM 40.3631 -115.9600 250° West 385 443 38,000  Level Salt Lake Center
Sat 06:45:04 PM 40.3322 -116.0881 253° West 384 442 38,000  Level Salt Lake Center
Sat 06:46:05 PM 40.2989 -116.2175 251° West 389 448 38,000  Level Salt Lake Center
Sat 06:47:06 PM 40.2600 -116.3667 251° West 386 444 38,000  Level Salt Lake Center
Sat 06:48:08 PM 40.2275 -116.4950 252° West 386 444 38,000  Level Salt Lake Center
Sat 06:49:09 PM 40.1933 -116.6247 251° West 390 449 38,000  Level Salt Lake Center
Sat 06:50:10 PM 40.1536 -116.7761 251° West 391 450 38,000  Level Salt Lake Center
Sat 06:51:11 PM 40.1200 -116.9064 251° West 391 450 38,000  Level Salt Lake Center
Sat 06:52:12 PM 40.0858 -117.0364 251° West 392 451 38,000  Level Salt Lake Center
Sat 06:53:13 PM 40.0519 -117.1667 251° West 393 452 38,000  Level Salt Lake Center
Sat 06:54:14 PM 40.0122 -117.3178 251° West 393 452 38,000  Level Salt Lake Center
Sat 06:55:15 PM 39.9772 -117.4469 251° West 393 452 38,000  Level Salt Lake Center
Sat 06:56:16 PM 39.9428 -117.5761 251° West 393 452 38,000  Level Salt Lake Center
Sat 06:57:17 PM 39.9019 -117.7258 250° West 393 452 38,000  Level Salt Lake Center
Sat 06:58:18 PM 39.8675 -117.8558 251° West 395 455 38,000  Level Salt Lake Center
Sat 06:59:19 PM 39.8311 -117.9883 250° West 394 453 38,000  Level Salt Lake Center
Sat 07:00:20 PM 39.7950 -118.1219 251° West 394 453 38,000  Level Salt Lake Center
Sat 07:01:21 PM 39.7583 -118.2553 250° West 394 453 38,000  Level Salt Lake Center
Sat 07:02:22 PM 39.7217 -118.3889 250° West 395 455 38,000  Level Salt Lake Center
Sat 07:03:23 PM 39.6772 -118.5478 250° West 393 452 38,000  Level Salt Lake Center
Sat 07:04:24 PM 39.6403 -118.6800 250° West 393 452 38,000  Level Salt Lake Center
Sat 07:05:25 PM 39.6025 -118.8111 250° West 394 453 38,000 -295 Level Salt Lake Center
Sat 07:06:26 PM 39.5653 -118.9431 250° West 396 456 37,400 -1,000 Descending Salt Lake Center
Sat 07:07:49 PM 39.5128 -119.1264 250° West 391 450 35,600 -1,333 Descending Oakland Center
Sat 07:08:50 PM 39.4750 -119.2556 249° West 385 443 34,200 -1,377 Descending Oakland Center
Sat 07:09:51 PM 39.4378 -119.3825 249° West 380 437 32,800 -1,623 Descending Oakland Center
Sat 07:10:52 PM 39.4028 -119.5064 250° West 371 427 30,900 -2,262 Descending Oakland Center
Sat 07:11:53 PM 39.3628 -119.6397 249° West 377 434 28,200 -2,459 Descending Oakland Center
Sat 07:12:54 PM 39.3294 -119.7558 250° West 369 425 25,900 -2,607 Descending Oakland Center
Sat 07:13:55 PM 39.2883 -119.9008 250° West 360 414 22,900 -2,705 Descending Oakland Center
Sat 07:14:56 PM 39.2536 -120.0175 249° West 349 402 20,400 -2,311 Descending Oakland Center
Sat 07:15:57 PM 39.2208 -120.1325 250° West 342 394 18,200 -2,016 Descending Oakland Center
Sat 07:16:58 PM 39.1919 -120.2264 248° West 323 372 16,300 -1,131 Descending Oakland Center
Sat 07:17:59 PM 39.1614 -120.3333 250° West 319 367 15,900 -148 Descending Oakland Center
Sat 07:19:00 PM 39.1347 -120.4414 252° West 317 365 16,000  Climbing Oakland Center
Sat 07:20:01 PM 39.1075 -120.5500 252° West 318 366 15,900 -1,033 Descending Oakland Center
Sat 07:21:02 PM 39.0733 -120.6794 251° West 319 367 13,900 -1,721 Descending Oakland Center
Sat 07:22:03 PM 39.0461 -120.7872 252° West 317 365 12,400 -1,475 Descending Oakland Center
Sat 07:23:04 PM 39.0194 -120.8936 252° West 315 362 10,900 -1,475 Descending Oakland Center
Sat 07:24:05 PM 38.9928 -120.9886 250° West 288 331 9,400 -1,623 Descending Oakland Center
Sat 07:25:06 PM 38.9494 -121.0664 234° Southwest 270 311 7,600 -1,770 Descending Oakland Center
Sat 07:26:07 PM 38.9086 -121.1450 236° Southwest 266 306 5,800 -1,328 Descending Oakland Center
Sat 07:27:08 PM 38.8850 -121.2322 251° West 264 304 4,900 -689 Descending Oakland Center
Sat 07:28:09 PM 38.8675 -121.3222 256° West 262 302 4,400 -836 Descending Oakland Center
Sat 07:29:10 PM 38.8628 -121.4136 266° West 259 298 3,200 -885 Descending Oakland Center
Sat 07:30:11 PM 38.8378 -121.4825 245° Southwest 225 259 2,600 -738 Descending Oakland Center
Sat 07:31:12 PM 38.7936 -121.5414 226° Southwest 196 226 1,700 -738 Descending Oakland Center
Sat 07:32:13 PM 38.7586 -121.5789 220° Southwest 180 207 1,100 -694 Descending Oakland Center
Sat 07:33:13 PM 38.7167 -121.5833 185° South 126 145 300 -800 Descending Northern Cal TRACON
Sat 07:36:00 PM 38.6954 -121.5908 218° Southwest  Level Estimated

Login

Don't have an account? Register now (free) for customized features, flight alerts, and more!